Aviation Digital Data Service (ADDS)

Output produced by METARs form (0030 UTC 25 April 2019)
found at http://www.aviationweather.gov/metar/data/
 
METAR text: FMEE 250000Z AUTO 14007KT 9999 FEW043 23/20 Q1014 NOSIG
Conditions at: FMEE (ST. DENIS/GILLOT, FR) observed 0000 UTC 25 April 2019
Temperature: 23.0°C (73°F)
Dewpoint: 20.0°C (68°F) [RH = 83%]
Pressure (altimeter): 29.94 inches Hg (1014.0 mb)
Winds: from the SE (140 degrees) at 8 MPH (7 knots; 3.6 m/s)
Visibility: 6 or more miles (10+ km)
Ceiling: at least 12,000 feet AGL
Clouds: few clouds at 4300 feet AGL
Weather: no significant weather observed at this time

METAR text: FMEE 242330Z AUTO 16004KT 9999 BKN041 22/20 Q1014 NOSIG
Conditions at: FMEE (ST. DENIS/GILLOT, FR) observed 2330 UTC 24 April 2019
Temperature: 22.0°C (72°F)
Dewpoint: 20.0°C (68°F) [RH = 88%]
Pressure (altimeter): 29.94 inches Hg (1014.0 mb)
Winds: from the SSE (160 degrees) at 5 MPH (4 knots; 2.1 m/s)
Visibility: 6 or more miles (10+ km)
Ceiling: 4100 feet AGL
Clouds: broken clouds at 4100 feet AGL
Weather: no significant weather observed at this time

METAR text: FMEE 242300Z AUTO 16004KT CAVOK 22/20 Q1014 NOSIG
Conditions at: FMEE (ST. DENIS/GILLOT, FR) observed 2300 UTC 24 April 2019
Temperature: 22.0°C (72°F)
Dewpoint: 20.0°C (68°F) [RH = 88%]
Pressure (altimeter): 29.94 inches Hg (1014.0 mb)
Winds: from the SSE (160 degrees) at 5 MPH (4 knots; 2.1 m/s)
Visibility: 6 or more miles (10+ km)
Ceiling: ceiling and visibility are OK
Clouds: unknown
Weather: no significant weather observed at this time

METAR text: FMEE 242230Z AUTO 19004KT CAVOK 22/20 Q1014 NOSIG
Conditions at: FMEE (ST. DENIS/GILLOT, FR) observed 2230 UTC 24 April 2019
Temperature: 22.0°C (72°F)
Dewpoint: 20.0°C (68°F) [RH = 88%]
Pressure (altimeter): 29.94 inches Hg (1014.0 mb)
Winds: from the S (190 degrees) at 5 MPH (4 knots; 2.1 m/s)
Visibility: 6 or more miles (10+ km)
Ceiling: ceiling and visibility are OK
Clouds: unknown
Weather: no significant weather observed at this time

METAR text: FMEE 242200Z AUTO 16004KT CAVOK 22/20 Q1014 NOSIG
Conditions at: FMEE (ST. DENIS/GILLOT, FR) observed 2200 UTC 24 April 2019
Temperature: 22.0°C (72°F)
Dewpoint: 20.0°C (68°F) [RH = 88%]
Pressure (altimeter): 29.94 inches Hg (1014.0 mb)
Winds: from the SSE (160 degrees) at 5 MPH (4 knots; 2.1 m/s)
Visibility: 6 or more miles (10+ km)
Ceiling: ceiling and visibility are OK
Clouds: unknown
Weather: no significant weather observed at this time

METAR text: FMEE 242130Z AUTO 13003KT CAVOK 23/20 Q1014 NOSIG
Conditions at: FMEE (ST. DENIS/GILLOT, FR) observed 2130 UTC 24 April 2019
Temperature: 23.0°C (73°F)
Dewpoint: 20.0°C (68°F) [RH = 83%]
Pressure (altimeter): 29.94 inches Hg (1014.0 mb)
Winds: from the SE (130 degrees) at 3 MPH (3 knots; 1.5 m/s)
Visibility: 6 or more miles (10+ km)
Ceiling: ceiling and visibility are OK
Clouds: unknown
Weather: no significant weather observed at this time

METAR text: FMEE 242100Z AUTO 16004KT CAVOK 23/21 Q1014 NOSIG
Conditions at: FMEE (ST. DENIS/GILLOT, FR) observed 2100 UTC 24 April 2019
Temperature: 23.0°C (73°F)
Dewpoint: 21.0°C (70°F) [RH = 89%]
Pressure (altimeter): 29.94 inches Hg (1014.0 mb)
Winds: from the SSE (160 degrees) at 5 MPH (4 knots; 2.1 m/s)
Visibility: 6 or more miles (10+ km)
Ceiling: ceiling and visibility are OK
Clouds: unknown
Weather: no significant weather observed at this time

METAR text: FMEE 242030Z AUTO 13004KT 100V160 CAVOK 23/21 Q1014 NOSIG
Conditions at: FMEE (ST. DENIS/GILLOT, FR) observed 2030 UTC 24 April 2019
Temperature: 23.0°C (73°F)
Dewpoint: 21.0°C (70°F) [RH = 89%]
Pressure (altimeter): 29.94 inches Hg (1014.0 mb)
Winds: from the SE (130 degrees) at 5 MPH (4 knots; 2.1 m/s)
Visibility: 6 or more miles (10+ km)
Ceiling: ceiling and visibility are OK
Clouds: unknown
Weather: no significant weather observed at this time

METAR text: FMEE 242000Z AUTO 18005KT 130V200 CAVOK 23/21 Q1014 NOSIG
Conditions at: FMEE (ST. DENIS/GILLOT, FR) observed 2000 UTC 24 April 2019
Temperature: 23.0°C (73°F)
Dewpoint: 21.0°C (70°F) [RH = 89%]
Pressure (altimeter): 29.94 inches Hg (1014.0 mb)
Winds: from the S (180 degrees) at 6 MPH (5 knots; 2.6 m/s)
Visibility: 6 or more miles (10+ km)
Ceiling: ceiling and visibility are OK
Clouds: unknown
Weather: no significant weather observed at this time

METAR text: FMEE 241930Z AUTO 13004KT 100V170 CAVOK 24/22 Q1014 NOSIG
Conditions at: FMEE (ST. DENIS/GILLOT, FR) observed 1930 UTC 24 April 2019
Temperature: 24.0°C (75°F)
Dewpoint: 22.0°C (72°F) [RH = 89%]
Pressure (altimeter): 29.94 inches Hg (1014.0 mb)
Winds: from the SE (130 degrees) at 5 MPH (4 knots; 2.1 m/s)
Visibility: 6 or more miles (10+ km)
Ceiling: ceiling and visibility are OK
Clouds: unknown
Weather: no significant weather observed at this time

METAR text: FMEE 241900Z AUTO 18006KT CAVOK 24/21 Q1015 NOSIG
Conditions at: FMEE (ST. DENIS/GILLOT, FR) observed 1900 UTC 24 April 2019
Temperature: 24.0°C (75°F)
Dewpoint: 21.0°C (70°F) [RH = 83%]
Pressure (altimeter): 29.97 inches Hg (1015.0 mb)
Winds: from the S (180 degrees) at 7 MPH (6 knots; 3.1 m/s)
Visibility: 6 or more miles (10+ km)
Ceiling: ceiling and visibility are OK
Clouds: unknown
Weather: no significant weather observed at this time

METAR text: FMEE 241830Z AUTO 15003KT 120V180 9999 SCT035 24/22 Q1015 NOSIG
Conditions at: FMEE (ST. DENIS/GILLOT, FR) observed 1830 UTC 24 April 2019
Temperature: 24.0°C (75°F)
Dewpoint: 22.0°C (72°F) [RH = 89%]
Pressure (altimeter): 29.97 inches Hg (1015.0 mb)
Winds: from the SSE (150 degrees) at 3 MPH (3 knots; 1.5 m/s)
Visibility: 6 or more miles (10+ km)
Ceiling: at least 12,000 feet AGL
Clouds: scattered clouds at 3500 feet AGL
Weather: no significant weather observed at this time

METAR text: FMEE 241800Z AUTO 18003KT 9999 FEW033 24/22 Q1015 NOSIG
Conditions at: FMEE (ST. DENIS/GILLOT, FR) observed 1800 UTC 24 April 2019
Temperature: 24.0°C (75°F)
Dewpoint: 22.0°C (72°F) [RH = 89%]
Pressure (altimeter): 29.97 inches Hg (1015.0 mb)
Winds: from the S (180 degrees) at 3 MPH (3 knots; 1.5 m/s)
Visibility: 6 or more miles (10+ km)
Ceiling: at least 12,000 feet AGL
Clouds: few clouds at 3300 feet AGL
Weather: no significant weather observed at this time

METAR text: FMEE 241730Z AUTO 16004KT 9999 SCT034 24/22 Q1015 NOSIG
Conditions at: FMEE (ST. DENIS/GILLOT, FR) observed 1730 UTC 24 April 2019
Temperature: 24.0°C (75°F)
Dewpoint: 22.0°C (72°F) [RH = 89%]
Pressure (altimeter): 29.97 inches Hg (1015.0 mb)
Winds: from the SSE (160 degrees) at 5 MPH (4 knots; 2.1 m/s)
Visibility: 6 or more miles (10+ km)
Ceiling: at least 12,000 feet AGL
Clouds: scattered clouds at 3400 feet AGL
Weather: no significant weather observed at this time

METAR text: FMEE 241700Z AUTO 18004KT 9999 BKN032 24/22 Q1015 BECMG SCT026 FEW030TCU BKN050
Conditions at: FMEE (ST. DENIS/GILLOT, FR) observed 1700 UTC 24 April 2019
Temperature: 24.0°C (75°F)
Dewpoint: 22.0°C (72°F) [RH = 89%]
Pressure (altimeter): 29.97 inches Hg (1015.0 mb)
Winds: from the S (180 degrees) at 5 MPH (4 knots; 2.1 m/s)
Visibility: 6 or more miles (10+ km)
Ceiling: 3200 feet AGL
Clouds: broken clouds at 3200 feet AGL
Weather: no significant weather observed at this time

METAR text: FMEE 241630Z AUTO 18004KT 120V210 9999 FEW033 24/22 Q1015 BECMG SCT026 FEW030TCU BKN050
Conditions at: FMEE (ST. DENIS/GILLOT, FR) observed 1630 UTC 24 April 2019
Temperature: 24.0°C (75°F)
Dewpoint: 22.0°C (72°F) [RH = 89%]
Pressure (altimeter): 29.97 inches Hg (1015.0 mb)
Winds: from the S (180 degrees) at 5 MPH (4 knots; 2.1 m/s)
Visibility: 6 or more miles (10+ km)
Ceiling: at least 12,000 feet AGL
Clouds: few clouds at 3300 feet AGL
Weather: no significant weather observed at this time

METAR text: FMEE 241600Z AUTO 20003KT CAVOK 25/23 Q1014 BECMG SCT026 FEW030TCU BKN050
Conditions at: FMEE (ST. DENIS/GILLOT, FR) observed 1600 UTC 24 April 2019
Temperature: 25.0°C (77°F)
Dewpoint: 23.0°C (73°F) [RH = 89%]
Pressure (altimeter): 29.94 inches Hg (1014.0 mb)
Winds: from the SSW (200 degrees) at 3 MPH (3 knots; 1.5 m/s)
Visibility: 6 or more miles (10+ km)
Ceiling: ceiling and visibility are OK
Clouds: unknown
Weather: no significant weather observed at this time

METAR text: FMEE 241530Z AUTO 15004KT 110V180 CAVOK 25/23 Q1014 BECMG SCT026 FEW030TCU BKN050
Conditions at: FMEE (ST. DENIS/GILLOT, FR) observed 1530 UTC 24 April 2019
Temperature: 25.0°C (77°F)
Dewpoint: 23.0°C (73°F) [RH = 89%]
Pressure (altimeter): 29.94 inches Hg (1014.0 mb)
Winds: from the SSE (150 degrees) at 5 MPH (4 knots; 2.1 m/s)
Visibility: 6 or more miles (10+ km)
Ceiling: ceiling and visibility are OK
Clouds: unknown
Weather: no significant weather observed at this time

METAR text: FMEE 241500Z AUTO 11006KT CAVOK 26/23 Q1014 BECMG SCT026 FEW030TCU BKN050
Conditions at: FMEE (ST. DENIS/GILLOT, FR) observed 1500 UTC 24 April 2019
Temperature: 26.0°C (79°F)
Dewpoint: 23.0°C (73°F) [RH = 84%]
Pressure (altimeter): 29.94 inches Hg (1014.0 mb)
Winds: from the ESE (110 degrees) at 7 MPH (6 knots; 3.1 m/s)
Visibility: 6 or more miles (10+ km)
Ceiling: ceiling and visibility are OK
Clouds: unknown
Weather: no significant weather observed at this time

METAR text: FMEE 241430Z AUTO 11007KT CAVOK 26/23 Q1013 BECMG SCT026 FEW030TCU BKN050
Conditions at: FMEE (ST. DENIS/GILLOT, FR) observed 1430 UTC 24 April 2019
Temperature: 26.0°C (79°F)
Dewpoint: 23.0°C (73°F) [RH = 84%]
Pressure (altimeter): 29.91 inches Hg (1013.0 mb)
Winds: from the ESE (110 degrees) at 8 MPH (7 knots; 3.6 m/s)
Visibility: 6 or more miles (10+ km)
Ceiling: ceiling and visibility are OK
Clouds: unknown
Weather: no significant weather observed at this time

METAR text: FMEE 241400Z AUTO 10009KT CAVOK 27/23 Q1013 BECMG SCT026 FEW030TCU BKN050
Conditions at: FMEE (ST. DENIS/GILLOT, FR) observed 1400 UTC 24 April 2019
Temperature: 27.0°C (81°F)
Dewpoint: 23.0°C (73°F) [RH = 79%]
Pressure (altimeter): 29.91 inches Hg (1013.0 mb)
Winds: from the E (100 degrees) at 10 MPH (9 knots; 4.6 m/s)
Visibility: 6 or more miles (10+ km)
Ceiling: ceiling and visibility are OK
Clouds: unknown
Weather: no significant weather observed at this time

METAR text: FMEE 241330Z AUTO 11011KT CAVOK 27/23 Q1013 BECMG SCT026 FEW030TCU BKN050
Conditions at: FMEE (ST. DENIS/GILLOT, FR) observed 1330 UTC 24 April 2019
Temperature: 27.0°C (81°F)
Dewpoint: 23.0°C (73°F) [RH = 79%]
Pressure (altimeter): 29.91 inches Hg (1013.0 mb)
Winds: from the ESE (110 degrees) at 13 MPH (11 knots; 5.7 m/s)
Visibility: 6 or more miles (10+ km)
Ceiling: ceiling and visibility are OK
Clouds: unknown
Weather: no significant weather observed at this time

METAR text: FMEE 241300Z AUTO 11012KT 9999 BKN049 28/23 Q1013 BECMG SCT026 FEW030TCU BKN050
Conditions at: FMEE (ST. DENIS/GILLOT, FR) observed 1300 UTC 24 April 2019
Temperature: 28.0°C (82°F)
Dewpoint: 23.0°C (73°F) [RH = 74%]
Pressure (altimeter): 29.91 inches Hg (1013.0 mb)
Winds: from the ESE (110 degrees) at 14 MPH (12 knots; 6.2 m/s)
Visibility: 6 or more miles (10+ km)
Ceiling: 4900 feet AGL
Clouds: broken clouds at 4900 feet AGL
Weather: no significant weather observed at this time

METAR text: FMEE 241230Z AUTO 11012KT 9999 OVC048 28/23 Q1013 BECMG SCT026 FEW030TCU BKN050
Conditions at: FMEE (ST. DENIS/GILLOT, FR) observed 1230 UTC 24 April 2019
Temperature: 28.0°C (82°F)
Dewpoint: 23.0°C (73°F) [RH = 74%]
Pressure (altimeter): 29.91 inches Hg (1013.0 mb)
Winds: from the ESE (110 degrees) at 14 MPH (12 knots; 6.2 m/s)
Visibility: 6 or more miles (10+ km)
Ceiling: 4800 feet AGL
Clouds: overcast cloud deck at 4800 feet AGL
Weather: no significant weather observed at this time

METAR text: FMEE 241200Z AUTO 10014KT 9999 FEW025 OVC050 28/23 Q1012 BECMG SCT026 FEW030TCU BKN050
Conditions at: FMEE (ST. DENIS/GILLOT, FR) observed 1200 UTC 24 April 2019
Temperature: 28.0°C (82°F)
Dewpoint: 23.0°C (73°F) [RH = 74%]
Pressure (altimeter): 29.88 inches Hg (1012.0 mb)
Winds: from the E (100 degrees) at 16 MPH (14 knots; 7.2 m/s)
Visibility: 6 or more miles (10+ km)
Ceiling: 5000 feet AGL
Clouds: few clouds at 2500 feet AGL
overcast cloud deck at 5000 feet AGL
Weather: no significant weather observed at this time

METAR text: FMEE 241130Z AUTO 10012KT 9999 BKN027 BKN040 OVC048 28/23 Q1012 BECMG SCT026 FEW030TCU BKN050
Conditions at: FMEE (ST. DENIS/GILLOT, FR) observed 1130 UTC 24 April 2019
Temperature: 28.0°C (82°F)
Dewpoint: 23.0°C (73°F) [RH = 74%]
Pressure (altimeter): 29.88 inches Hg (1012.0 mb)
Winds: from the E (100 degrees) at 14 MPH (12 knots; 6.2 m/s)
Visibility: 6 or more miles (10+ km)
Ceiling: 2700 feet AGL
Clouds: broken clouds at 2700 feet AGL
broken clouds at 4000 feet AGL
overcast cloud deck at 4800 feet AGL
Weather: no significant weather observed at this time

METAR text: FMEE 241100Z AUTO 09013KT 9999 BKN027/// BKN046/// BKN098/// ///TCU 29/23 Q1012 BECMG BKN055
Conditions at: FMEE (ST. DENIS/GILLOT, FR) observed 1100 UTC 24 April 2019
Temperature: 29.0°C (84°F)
Dewpoint: 23.0°C (73°F) [RH = 70%]
Pressure (altimeter): 29.88 inches Hg (1012.0 mb)
Winds: from the E (90 degrees) at 15 MPH (13 knots; 6.7 m/s)
Visibility: 6 or more miles (10+ km)
Ceiling: 2700 feet AGL
Clouds: broken clouds at 2700 feet AGL
broken clouds at 4600 feet AGL
broken clouds at 9800 feet AGL
Weather: no significant weather observed at this time

METAR text: FMEE 241030Z AUTO 09013KT 9999 FEW025/// SCT043/// BKN056/// ///TCU 29/24 Q1012 BECMG BKN055
Conditions at: FMEE (ST. DENIS/GILLOT, FR) observed 1030 UTC 24 April 2019
Temperature: 29.0°C (84°F)
Dewpoint: 24.0°C (75°F) [RH = 74%]
Pressure (altimeter): 29.88 inches Hg (1012.0 mb)
Winds: from the E (90 degrees) at 15 MPH (13 knots; 6.7 m/s)
Visibility: 6 or more miles (10+ km)
Ceiling: 5600 feet AGL
Clouds: few clouds at 2500 feet AGL
scattered clouds at 4300 feet AGL
broken clouds at 5600 feet AGL
Weather: no significant weather observed at this time

METAR text: FMEE 241000Z AUTO 08015KT 9999 SCT026/// BKN049/// OVC072/// ///TCU 29/23 Q1013 BECMG BKN055
Conditions at: FMEE (ST. DENIS/GILLOT, FR) observed 1000 UTC 24 April 2019
Temperature: 29.0°C (84°F)
Dewpoint: 23.0°C (73°F) [RH = 70%]
Pressure (altimeter): 29.91 inches Hg (1013.0 mb)
Winds: from the E (80 degrees) at 17 MPH (15 knots; 7.7 m/s)
Visibility: 6 or more miles (10+ km)
Ceiling: 4900 feet AGL
Clouds: scattered clouds at 2600 feet AGL
broken clouds at 4900 feet AGL
overcast cloud deck at 7200 feet AGL
Weather: no significant weather observed at this time

METAR text: FMEE 240930Z AUTO 10012KT 9999 FEW027/// BKN052/// OVC062/// ///CB 30/24 Q1013 BECMG BKN055
Conditions at: FMEE (ST. DENIS/GILLOT, FR) observed 0930 UTC 24 April 2019
Temperature: 30.0°C (86°F)
Dewpoint: 24.0°C (75°F) [RH = 70%]
Pressure (altimeter): 29.91 inches Hg (1013.0 mb)
Winds: from the E (100 degrees) at 14 MPH (12 knots; 6.2 m/s)
Visibility: 6 or more miles (10+ km)
Ceiling: 5200 feet AGL
Clouds: few clouds at 2700 feet AGL
broken clouds at 5200 feet AGL
overcast cloud deck at 6200 feet AGL
Weather: no significant weather observed at this time

METAR text: FMEE 240900Z AUTO 11014KT 9999 FEW026/// BKN034/// BKN056/// ///CB 30/23 Q1013 BECMG BKN055
Conditions at: FMEE (ST. DENIS/GILLOT, FR) observed 0900 UTC 24 April 2019
Temperature: 30.0°C (86°F)
Dewpoint: 23.0°C (73°F) [RH = 66%]
Pressure (altimeter): 29.91 inches Hg (1013.0 mb)
Winds: from the ESE (110 degrees) at 16 MPH (14 knots; 7.2 m/s)
Visibility: 6 or more miles (10+ km)
Ceiling: 3400 feet AGL
Clouds: few clouds at 2600 feet AGL
broken clouds at 3400 feet AGL
broken clouds at 5600 feet AGL
Weather: no significant weather observed at this time

METAR text: FMEE 240830Z AUTO 09015KT 9999 FEW029/// SCT068/// ///TCU 30/24 Q1013 BECMG BKN055
Conditions at: FMEE (ST. DENIS/GILLOT, FR) observed 0830 UTC 24 April 2019
Temperature: 30.0°C (86°F)
Dewpoint: 24.0°C (75°F) [RH = 70%]
Pressure (altimeter): 29.91 inches Hg (1013.0 mb)
Winds: from the E (90 degrees) at 17 MPH (15 knots; 7.7 m/s)
Visibility: 6 or more miles (10+ km)
Ceiling: at least 12,000 feet AGL
Clouds: few clouds at 2900 feet AGL
scattered clouds at 6800 feet AGL
Weather: no significant weather observed at this time

METAR text: FMEE 240800Z AUTO 08016KT 9999 FEW068/// ///TCU 30/25 Q1014 BECMG BKN055
Conditions at: FMEE (ST. DENIS/GILLOT, FR) observed 0800 UTC 24 April 2019
Temperature: 30.0°C (86°F)
Dewpoint: 25.0°C (77°F) [RH = 75%]
Pressure (altimeter): 29.94 inches Hg (1014.0 mb)
Winds: from the E (80 degrees) at 18 MPH (16 knots; 8.2 m/s)
Visibility: 6 or more miles (10+ km)
Ceiling: at least 12,000 feet AGL
Clouds: few clouds at 6800 feet AGL
Weather: no significant weather observed at this time

METAR text: FMEE 240730Z AUTO 08014KT 9999 FEW026 SCT068 30/24 Q1014 NOSIG
Conditions at: FMEE (ST. DENIS/GILLOT, FR) observed 0730 UTC 24 April 2019
Temperature: 30.0°C (86°F)
Dewpoint: 24.0°C (75°F) [RH = 70%]
Pressure (altimeter): 29.94 inches Hg (1014.0 mb)
Winds: from the E (80 degrees) at 16 MPH (14 knots; 7.2 m/s)
Visibility: 6 or more miles (10+ km)
Ceiling: at least 12,000 feet AGL
Clouds: few clouds at 2600 feet AGL
scattered clouds at 6800 feet AGL
Weather: no significant weather observed at this time

METAR text: FMEE 240700Z AUTO 08013KT CAVOK 30/24 Q1014 NOSIG
Conditions at: FMEE (ST. DENIS/GILLOT, FR) observed 0700 UTC 24 April 2019
Temperature: 30.0°C (86°F)
Dewpoint: 24.0°C (75°F) [RH = 70%]
Pressure (altimeter): 29.94 inches Hg (1014.0 mb)
Winds: from the E (80 degrees) at 15 MPH (13 knots; 6.7 m/s)
Visibility: 6 or more miles (10+ km)
Ceiling: ceiling and visibility are OK
Clouds: unknown
Weather: no significant weather observed at this time

METAR text: FMEE 240630Z AUTO 08010KT CAVOK 30/24 Q1015 NOSIG
Conditions at: FMEE (ST. DENIS/GILLOT, FR) observed 0630 UTC 24 April 2019
Temperature: 30.0°C (86°F)
Dewpoint: 24.0°C (75°F) [RH = 70%]
Pressure (altimeter): 29.97 inches Hg (1015.0 mb)
Winds: from the E (80 degrees) at 12 MPH (10 knots; 5.1 m/s)
Visibility: 6 or more miles (10+ km)
Ceiling: ceiling and visibility are OK
Clouds: unknown
Weather: no significant weather observed at this time

METAR text: FMEE 240600Z AUTO 09008KT CAVOK 30/22 Q1015 NOSIG
Conditions at: FMEE (ST. DENIS/GILLOT, FR) observed 0600 UTC 24 April 2019
Temperature: 30.0°C (86°F)
Dewpoint: 22.0°C (72°F) [RH = 62%]
Pressure (altimeter): 29.97 inches Hg (1015.0 mb)
Winds: from the E (90 degrees) at 9 MPH (8 knots; 4.1 m/s)
Visibility: 6 or more miles (10+ km)
Ceiling: ceiling and visibility are OK
Clouds: unknown
Weather: no significant weather observed at this time

METAR text: FMEE 240530Z AUTO 09010KT CAVOK 29/22 Q1015 NOSIG
Conditions at: FMEE (ST. DENIS/GILLOT, FR) observed 0530 UTC 24 April 2019
Temperature: 29.0°C (84°F)
Dewpoint: 22.0°C (72°F) [RH = 66%]
Pressure (altimeter): 29.97 inches Hg (1015.0 mb)
Winds: from the E (90 degrees) at 12 MPH (10 knots; 5.1 m/s)
Visibility: 6 or more miles (10+ km)
Ceiling: ceiling and visibility are OK
Clouds: unknown
Weather: no significant weather observed at this time

METAR text: FMEE 240500Z AUTO 09008KT CAVOK 28/23 Q1015 NOSIG
Conditions at: FMEE (ST. DENIS/GILLOT, FR) observed 0500 UTC 24 April 2019
Temperature: 28.0°C (82°F)
Dewpoint: 23.0°C (73°F) [RH = 74%]
Pressure (altimeter): 29.97 inches Hg (1015.0 mb)
Winds: from the E (90 degrees) at 9 MPH (8 knots; 4.1 m/s)
Visibility: 6 or more miles (10+ km)
Ceiling: ceiling and visibility are OK
Clouds: unknown
Weather: no significant weather observed at this time

METAR text: FMEE 240430Z AUTO 10006KT 060V180 CAVOK 28/22 Q1015 NOSIG
Conditions at: FMEE (ST. DENIS/GILLOT, FR) observed 0430 UTC 24 April 2019
Temperature: 28.0°C (82°F)
Dewpoint: 22.0°C (72°F) [RH = 70%]
Pressure (altimeter): 29.97 inches Hg (1015.0 mb)
Winds: from the E (100 degrees) at 7 MPH (6 knots; 3.1 m/s)
Visibility: 6 or more miles (10+ km)
Ceiling: ceiling and visibility are OK
Clouds: unknown
Weather: no significant weather observed at this time

METAR text: FMEE 240400Z AUTO 12004KT 090V150 CAVOK 27/22 Q1014 NOSIG
Conditions at: FMEE (ST. DENIS/GILLOT, FR) observed 0400 UTC 24 April 2019
Temperature: 27.0°C (81°F)
Dewpoint: 22.0°C (72°F) [RH = 74%]
Pressure (altimeter): 29.94 inches Hg (1014.0 mb)
Winds: from the ESE (120 degrees) at 5 MPH (4 knots; 2.1 m/s)
Visibility: 6 or more miles (10+ km)
Ceiling: ceiling and visibility are OK
Clouds: unknown
Weather: no significant weather observed at this time

METAR text: FMEE 240330Z AUTO 16004KT CAVOK 24/22 Q1014 BECMG 07010KT
Conditions at: FMEE (ST. DENIS/GILLOT, FR) observed 0330 UTC 24 April 2019
Temperature: 24.0°C (75°F)
Dewpoint: 22.0°C (72°F) [RH = 89%]
Pressure (altimeter): 29.94 inches Hg (1014.0 mb)
Winds: from the SSE (160 degrees) at 5 MPH (4 knots; 2.1 m/s)
Visibility: 6 or more miles (10+ km)
Ceiling: ceiling and visibility are OK
Clouds: unknown
Weather: no significant weather observed at this time

METAR text: FMEE 240300Z AUTO 17005KT CAVOK 23/21 Q1014 BECMG 07010KT
Conditions at: FMEE (ST. DENIS/GILLOT, FR) observed 0300 UTC 24 April 2019
Temperature: 23.0°C (73°F)
Dewpoint: 21.0°C (70°F) [RH = 89%]
Pressure (altimeter): 29.94 inches Hg (1014.0 mb)
Winds: from the S (170 degrees) at 6 MPH (5 knots; 2.6 m/s)
Visibility: 6 or more miles (10+ km)
Ceiling: ceiling and visibility are OK
Clouds: unknown
Weather: no significant weather observed at this time

METAR text: FMEE 240230Z AUTO 18004KT CAVOK 22/21 Q1014 BECMG 07010KT
Conditions at: FMEE (ST. DENIS/GILLOT, FR) observed 0230 UTC 24 April 2019
Temperature: 22.0°C (72°F)
Dewpoint: 21.0°C (70°F) [RH = 94%]
Pressure (altimeter): 29.94 inches Hg (1014.0 mb)
Winds: from the S (180 degrees) at 5 MPH (4 knots; 2.1 m/s)
Visibility: 6 or more miles (10+ km)
Ceiling: ceiling and visibility are OK
Clouds: unknown
Weather: no significant weather observed at this time

METAR text: FMEE 240200Z AUTO 19004KT CAVOK 23/20 Q1014 BECMG 07010KT
Conditions at: FMEE (ST. DENIS/GILLOT, FR) observed 0200 UTC 24 April 2019
Temperature: 23.0°C (73°F)
Dewpoint: 20.0°C (68°F) [RH = 83%]
Pressure (altimeter): 29.94 inches Hg (1014.0 mb)
Winds: from the S (190 degrees) at 5 MPH (4 knots; 2.1 m/s)
Visibility: 6 or more miles (10+ km)
Ceiling: ceiling and visibility are OK
Clouds: unknown
Weather: no significant weather observed at this time

METAR text: FMEE 240130Z AUTO 19003KT CAVOK 23/21 Q1014 BECMG 07010KT
Conditions at: FMEE (ST. DENIS/GILLOT, FR) observed 0130 UTC 24 April 2019
Temperature: 23.0°C (73°F)
Dewpoint: 21.0°C (70°F) [RH = 89%]
Pressure (altimeter): 29.94 inches Hg (1014.0 mb)
Winds: from the S (190 degrees) at 3 MPH (3 knots; 1.5 m/s)
Visibility: 6 or more miles (10+ km)
Ceiling: ceiling and visibility are OK
Clouds: unknown
Weather: no significant weather observed at this time

METAR text: FMEE 240100Z AUTO 17004KT CAVOK 22/21 Q1013 NOSIG
Conditions at: FMEE (ST. DENIS/GILLOT, FR) observed 0100 UTC 24 April 2019
Temperature: 22.0°C (72°F)
Dewpoint: 21.0°C (70°F) [RH = 94%]
Pressure (altimeter): 29.91 inches Hg (1013.0 mb)
Winds: from the S (170 degrees) at 5 MPH (4 knots; 2.1 m/s)
Visibility: 6 or more miles (10+ km)
Ceiling: ceiling and visibility are OK
Clouds: unknown
Weather: no significant weather observed at this time

METAR text: FMEE 240030Z AUTO VRB03KT CAVOK 22/21 Q1013 NOSIG
Conditions at: FMEE (ST. DENIS/GILLOT, FR) observed 0030 UTC 24 April 2019
Temperature: 22.0°C (72°F)
Dewpoint: 21.0°C (70°F) [RH = 94%]
Pressure (altimeter): 29.91 inches Hg (1013.0 mb)
Winds: variable direction winds at 3 MPH (3 knots; 1.5 m/s)
Visibility: 6 or more miles (10+ km)
Ceiling: ceiling and visibility are OK
Clouds: unknown
Weather: no significant weather observed at this time

METAR text: FMEE 240000Z AUTO 17003KT 140V210 CAVOK 22/21 Q1013 NOSIG
Conditions at: FMEE (ST. DENIS/GILLOT, FR) observed 0000 UTC 24 April 2019
Temperature: 22.0°C (72°F)
Dewpoint: 21.0°C (70°F) [RH = 94%]
Pressure (altimeter): 29.91 inches Hg (1013.0 mb)
Winds: from the S (170 degrees) at 3 MPH (3 knots; 1.5 m/s)
Visibility: 6 or more miles (10+ km)
Ceiling: ceiling and visibility are OK
Clouds: unknown
Weather: no significant weather observed at this time

METAR text: FMEE 232330Z AUTO 16004KT CAVOK 23/21 Q1014 NOSIG
Conditions at: FMEE (ST. DENIS/GILLOT, FR) observed 2330 UTC 23 April 2019
Temperature: 23.0°C (73°F)
Dewpoint: 21.0°C (70°F) [RH = 89%]
Pressure (altimeter): 29.94 inches Hg (1014.0 mb)
Winds: from the SSE (160 degrees) at 5 MPH (4 knots; 2.1 m/s)
Visibility: 6 or more miles (10+ km)
Ceiling: ceiling and visibility are OK
Clouds: unknown
Weather: no significant weather observed at this time

METAR text: FMEE 232300Z AUTO 18002KT CAVOK 23/21 Q1014 NOSIG
Conditions at: FMEE (ST. DENIS/GILLOT, FR) observed 2300 UTC 23 April 2019
Temperature: 23.0°C (73°F)
Dewpoint: 21.0°C (70°F) [RH = 89%]
Pressure (altimeter): 29.94 inches Hg (1014.0 mb)
Winds: from the S (180 degrees) at 2 MPH (2 knots; 1.0 m/s)
Visibility: 6 or more miles (10+ km)
Ceiling: ceiling and visibility are OK
Clouds: unknown
Weather: no significant weather observed at this time

METAR text: FMEE 232230Z AUTO 17004KT CAVOK 23/21 Q1014 NOSIG
Conditions at: FMEE (ST. DENIS/GILLOT, FR) observed 2230 UTC 23 April 2019
Temperature: 23.0°C (73°F)
Dewpoint: 21.0°C (70°F) [RH = 89%]
Pressure (altimeter): 29.94 inches Hg (1014.0 mb)
Winds: from the S (170 degrees) at 5 MPH (4 knots; 2.1 m/s)
Visibility: 6 or more miles (10+ km)
Ceiling: ceiling and visibility are OK
Clouds: unknown
Weather: no significant weather observed at this time

METAR text: FMEE 232200Z AUTO 20003KT 160V220 CAVOK 23/21 Q1014 NOSIG
Conditions at: FMEE (ST. DENIS/GILLOT, FR) observed 2200 UTC 23 April 2019
Temperature: 23.0°C (73°F)
Dewpoint: 21.0°C (70°F) [RH = 89%]
Pressure (altimeter): 29.94 inches Hg (1014.0 mb)
Winds: from the SSW (200 degrees) at 3 MPH (3 knots; 1.5 m/s)
Visibility: 6 or more miles (10+ km)
Ceiling: ceiling and visibility are OK
Clouds: unknown
Weather: no significant weather observed at this time

METAR text: FMEE 232130Z AUTO 15003KT 080V200 CAVOK 23/22 Q1014 NOSIG
Conditions at: FMEE (ST. DENIS/GILLOT, FR) observed 2130 UTC 23 April 2019
Temperature: 23.0°C (73°F)
Dewpoint: 22.0°C (72°F) [RH = 94%]
Pressure (altimeter): 29.94 inches Hg (1014.0 mb)
Winds: from the SSE (150 degrees) at 3 MPH (3 knots; 1.5 m/s)
Visibility: 6 or more miles (10+ km)
Ceiling: ceiling and visibility are OK
Clouds: unknown
Weather: no significant weather observed at this time

METAR text: FMEE 232100Z AUTO 18004KT CAVOK 23/22 Q1015 NOSIG
Conditions at: FMEE (ST. DENIS/GILLOT, FR) observed 2100 UTC 23 April 2019
Temperature: 23.0°C (73°F)
Dewpoint: 22.0°C (72°F) [RH = 94%]
Pressure (altimeter): 29.97 inches Hg (1015.0 mb)
Winds: from the S (180 degrees) at 5 MPH (4 knots; 2.1 m/s)
Visibility: 6 or more miles (10+ km)
Ceiling: ceiling and visibility are OK
Clouds: unknown
Weather: no significant weather observed at this time

METAR text: FMEE 232030Z AUTO 17003KT 140V200 CAVOK 24/22 Q1015 NOSIG
Conditions at: FMEE (ST. DENIS/GILLOT, FR) observed 2030 UTC 23 April 2019
Temperature: 24.0°C (75°F)
Dewpoint: 22.0°C (72°F) [RH = 89%]
Pressure (altimeter): 29.97 inches Hg (1015.0 mb)
Winds: from the S (170 degrees) at 3 MPH (3 knots; 1.5 m/s)
Visibility: 6 or more miles (10+ km)
Ceiling: ceiling and visibility are OK
Clouds: unknown
Weather: no significant weather observed at this time

METAR text: FMEE 232000Z AUTO 15005KT 9999 FEW056 24/22 Q1015 NOSIG
Conditions at: FMEE (ST. DENIS/GILLOT, FR) observed 2000 UTC 23 April 2019
Temperature: 24.0°C (75°F)
Dewpoint: 22.0°C (72°F) [RH = 89%]
Pressure (altimeter): 29.97 inches Hg (1015.0 mb)
Winds: from the SSE (150 degrees) at 6 MPH (5 knots; 2.6 m/s)
Visibility: 6 or more miles (10+ km)
Ceiling: at least 12,000 feet AGL
Clouds: few clouds at 5600 feet AGL
Weather: no significant weather observed at this time

METAR text: FMEE 231930Z AUTO VRB02KT 9999 OVC058 24/22 Q1015 NOSIG
Conditions at: FMEE (ST. DENIS/GILLOT, FR) observed 1930 UTC 23 April 2019
Temperature: 24.0°C (75°F)
Dewpoint: 22.0°C (72°F) [RH = 89%]
Pressure (altimeter): 29.97 inches Hg (1015.0 mb)
Winds: variable direction winds at 2 MPH (2 knots; 1.0 m/s)
Visibility: 6 or more miles (10+ km)
Ceiling: 5800 feet AGL
Clouds: overcast cloud deck at 5800 feet AGL
Weather: no significant weather observed at this time

METAR text: FMEE 231900Z AUTO 14003KT 070V180 9999 OVC058 25/22 Q1015 NOSIG
Conditions at: FMEE (ST. DENIS/GILLOT, FR) observed 1900 UTC 23 April 2019
Temperature: 25.0°C (77°F)
Dewpoint: 22.0°C (72°F) [RH = 83%]
Pressure (altimeter): 29.97 inches Hg (1015.0 mb)
Winds: from the SE (140 degrees) at 3 MPH (3 knots; 1.5 m/s)
Visibility: 6 or more miles (10+ km)
Ceiling: 5800 feet AGL
Clouds: overcast cloud deck at 5800 feet AGL
Weather: no significant weather observed at this time

METAR text: FMEE 231830Z AUTO 16005KT 9999 OVC058 25/22 Q1015 NOSIG
Conditions at: FMEE (ST. DENIS/GILLOT, FR) observed 1830 UTC 23 April 2019
Temperature: 25.0°C (77°F)
Dewpoint: 22.0°C (72°F) [RH = 83%]
Pressure (altimeter): 29.97 inches Hg (1015.0 mb)
Winds: from the SSE (160 degrees) at 6 MPH (5 knots; 2.6 m/s)
Visibility: 6 or more miles (10+ km)
Ceiling: 5800 feet AGL
Clouds: overcast cloud deck at 5800 feet AGL
Weather: no significant weather observed at this time

METAR text: FMEE 231800Z AUTO 12005KT 9999 FEW058 25/22 Q1015 NOSIG
Conditions at: FMEE (ST. DENIS/GILLOT, FR) observed 1800 UTC 23 April 2019
Temperature: 25.0°C (77°F)
Dewpoint: 22.0°C (72°F) [RH = 83%]
Pressure (altimeter): 29.97 inches Hg (1015.0 mb)
Winds: from the ESE (120 degrees) at 6 MPH (5 knots; 2.6 m/s)
Visibility: 6 or more miles (10+ km)
Ceiling: at least 12,000 feet AGL
Clouds: few clouds at 5800 feet AGL
Weather: no significant weather observed at this time

METAR text: FMEE 231730Z AUTO 13005KT 9999 BKN056 25/22 Q1015 NOSIG
Conditions at: FMEE (ST. DENIS/GILLOT, FR) observed 1730 UTC 23 April 2019
Temperature: 25.0°C (77°F)
Dewpoint: 22.0°C (72°F) [RH = 83%]
Pressure (altimeter): 29.97 inches Hg (1015.0 mb)
Winds: from the SE (130 degrees) at 6 MPH (5 knots; 2.6 m/s)
Visibility: 6 or more miles (10+ km)
Ceiling: 5600 feet AGL
Clouds: broken clouds at 5600 feet AGL
Weather: no significant weather observed at this time

METAR text: FMEE 231700Z AUTO 14004KT 9999 BKN056 26/22 Q1015 NOSIG
Conditions at: FMEE (ST. DENIS/GILLOT, FR) observed 1700 UTC 23 April 2019
Temperature: 26.0°C (79°F)
Dewpoint: 22.0°C (72°F) [RH = 79%]
Pressure (altimeter): 29.97 inches Hg (1015.0 mb)
Winds: from the SE (140 degrees) at 5 MPH (4 knots; 2.1 m/s)
Visibility: 6 or more miles (10+ km)
Ceiling: 5600 feet AGL
Clouds: broken clouds at 5600 feet AGL
Weather: no significant weather observed at this time

METAR text: FMEE 231630Z AUTO 11006KT 9999 BKN054 26/22 Q1015 NOSIG
Conditions at: FMEE (ST. DENIS/GILLOT, FR) observed 1630 UTC 23 April 2019
Temperature: 26.0°C (79°F)
Dewpoint: 22.0°C (72°F) [RH = 79%]
Pressure (altimeter): 29.97 inches Hg (1015.0 mb)
Winds: from the ESE (110 degrees) at 7 MPH (6 knots; 3.1 m/s)
Visibility: 6 or more miles (10+ km)
Ceiling: 5400 feet AGL
Clouds: broken clouds at 5400 feet AGL
Weather: no significant weather observed at this time

METAR text: FMEE 231600Z AUTO 13006KT 9999 OVC052 26/22 Q1014 NOSIG
Conditions at: FMEE (ST. DENIS/GILLOT, FR) observed 1600 UTC 23 April 2019
Temperature: 26.0°C (79°F)
Dewpoint: 22.0°C (72°F) [RH = 79%]
Pressure (altimeter): 29.94 inches Hg (1014.0 mb)
Winds: from the SE (130 degrees) at 7 MPH (6 knots; 3.1 m/s)
Visibility: 6 or more miles (10+ km)
Ceiling: 5200 feet AGL
Clouds: overcast cloud deck at 5200 feet AGL
Weather: no significant weather observed at this time

METAR text: FMEE 231530Z AUTO 13006KT 9999 BKN052 OVC066 27/23 Q1014 NOSIG
Conditions at: FMEE (ST. DENIS/GILLOT, FR) observed 1530 UTC 23 April 2019
Temperature: 27.0°C (81°F)
Dewpoint: 23.0°C (73°F) [RH = 79%]
Pressure (altimeter): 29.94 inches Hg (1014.0 mb)
Winds: from the SE (130 degrees) at 7 MPH (6 knots; 3.1 m/s)
Visibility: 6 or more miles (10+ km)
Ceiling: 5200 feet AGL
Clouds: broken clouds at 5200 feet AGL
overcast cloud deck at 6600 feet AGL
Weather: no significant weather observed at this time

METAR text: FMEE 231500Z AUTO VRB02KT 9999 SCT026 OVC056 27/23 Q1014 TEMPO 4500 SHRA
Conditions at: FMEE (ST. DENIS/GILLOT, FR) observed 1500 UTC 23 April 2019
Temperature: 27.0°C (81°F)
Dewpoint: 23.0°C (73°F) [RH = 79%]
Pressure (altimeter): 29.94 inches Hg (1014.0 mb)
Winds: variable direction winds at 2 MPH (2 knots; 1.0 m/s)
Visibility: 6 or more miles (10+ km)
Ceiling: 5600 feet AGL
Clouds: scattered clouds at 2600 feet AGL
overcast cloud deck at 5600 feet AGL
Weather: no significant weather observed at this time

METAR text: FMEE 231430Z AUTO VRB02KT 9999 OVC054 27/23 Q1014 TEMPO 4500 SHRA
Conditions at: FMEE (ST. DENIS/GILLOT, FR) observed 1430 UTC 23 April 2019
Temperature: 27.0°C (81°F)
Dewpoint: 23.0°C (73°F) [RH = 79%]
Pressure (altimeter): 29.94 inches Hg (1014.0 mb)
Winds: variable direction winds at 2 MPH (2 knots; 1.0 m/s)
Visibility: 6 or more miles (10+ km)
Ceiling: 5400 feet AGL
Clouds: overcast cloud deck at 5400 feet AGL
Weather: no significant weather observed at this time

METAR text: FMEE 231400Z AUTO 04003KT 9999 FEW033/// OVC052/// ///TCU 27/23 Q1013 TEMPO 4500 SHRA BECMG SCT045
Conditions at: FMEE (ST. DENIS/GILLOT, FR) observed 1400 UTC 23 April 2019
Temperature: 27.0°C (81°F)
Dewpoint: 23.0°C (73°F) [RH = 79%]
Pressure (altimeter): 29.91 inches Hg (1013.0 mb)
Winds: from the NE (40 degrees) at 3 MPH (3 knots; 1.5 m/s)
Visibility: 6 or more miles (10+ km)
Ceiling: 5200 feet AGL
Clouds: few clouds at 3300 feet AGL
overcast cloud deck at 5200 feet AGL
Weather: no significant weather observed at this time

METAR text: FMEE 231330Z AUTO 03002KT 9999 FEW048/// BKN060/// BKN076/// ///TCU 28/24 Q1013 TEMPO 4500 SHRA BECMG SCT045
Conditions at: FMEE (ST. DENIS/GILLOT, FR) observed 1330 UTC 23 April 2019
Temperature: 28.0°C (82°F)
Dewpoint: 24.0°C (75°F) [RH = 79%]
Pressure (altimeter): 29.91 inches Hg (1013.0 mb)
Winds: from the NNE (30 degrees) at 2 MPH (2 knots; 1.0 m/s)
Visibility: 6 or more miles (10+ km)
Ceiling: 6000 feet AGL
Clouds: few clouds at 4800 feet AGL
broken clouds at 6000 feet AGL
broken clouds at 7600 feet AGL
Weather: no significant weather observed at this time

METAR text: FMEE 231300Z AUTO VRB02KT 9999 BKN048/// OVC054/// ///CB 28/23 Q1013 TEMPO 4500 SHRA BECMG SCT045
Conditions at: FMEE (ST. DENIS/GILLOT, FR) observed 1300 UTC 23 April 2019
Temperature: 28.0°C (82°F)
Dewpoint: 23.0°C (73°F) [RH = 74%]
Pressure (altimeter): 29.91 inches Hg (1013.0 mb)
Winds: variable direction winds at 2 MPH (2 knots; 1.0 m/s)
Visibility: 6 or more miles (10+ km)
Ceiling: 4800 feet AGL
Clouds: broken clouds at 4800 feet AGL
overcast cloud deck at 5400 feet AGL
Weather: no significant weather observed at this time

Forecast for: FMEE (ST. DENIS/GILLOT, FR)
Text: TAF FMEE 242300Z 2500/2606 16004KT 9999 FEW026
Forecast period: 0000 to 0400 UTC 25 April 2019
Forecast type: FROM: standard forecast or significant change
Winds: from the SSE (160 degrees) at 5 MPH (4 knots; 2.1 m/s)
Visibility: 6 or more miles 10+ km)
Ceiling: at least 12,000 feet AGL
Clouds: few clouds at 2600 feet AGL
Weather: no significant weather forecast for this period
Text: BECMG 2504/2506 11020KT
Forecast period: 0400 to 1400 UTC 25 April 2019
Forecast type: BECOMING: Conditions expected to become as follows by 0600 UTC 25 April 2019
Winds: from the ESE (110 degrees) at 23 MPH (20 knots; 10.3 m/s)
Visibility: 6 or more miles 10+ km)
Ceiling: at least 12,000 feet AGL
Clouds: few clouds at 2600 feet AGL
Weather: no significant weather forecast for this period
Text: TEMPO 2506/2512 10022G32KT
Forecast period: 0600 to 1200 UTC 25 April 2019
Forecast type: TEMPORARY: The following changes expected for less than half the time period
Winds: from the E (100 degrees) at 25 MPH (22 knots; 11.3 m/s)
gusting to 37 MPH (32 knots; 16.5 m/s)
Visibility: missing
Ceiling: unknown
Clouds: missing
Weather: no significant weather forecast for this period
Text: BECMG 2514/2516 13010KT
Forecast period: 1400 UTC 25 April 2019 to 0600 UTC 26 April 2019
Forecast type: BECOMING: Conditions expected to become as follows by 1600 UTC 25 April 2019
Winds: from the SE (130 degrees) at 12 MPH (10 knots; 5.1 m/s)
Visibility: 6 or more miles 10+ km)
Ceiling: at least 12,000 feet AGL
Clouds: few clouds at 2600 feet AGL
Weather: no significant weather forecast for this period